sensor_id;sensor_type;location;lat;lon;timestamp;pressure;altitude;pressure_sealevel;temperature;humidity
26697;BME280;14312;52.614;13.496;2023-05-23T00:02:24;100556.72;;;20.54;37.56
26697;BME280;14312;52.614;13.496;2023-05-23T00:05:10;100556.84;;;20.49;37.84
26697;BME280;14312;52.614;13.496;2023-05-23T00:07:56;100553.47;;;20.44;37.79
26697;BME280;14312;52.614;13.496;2023-05-23T00:10:43;100550.56;;;20.40;37.84
26697;BME280;14312;52.614;13.496;2023-05-23T00:13:29;100550.69;;;20.35;38.51
26697;BME280;14312;52.614;13.496;2023-05-23T00:16:18;100542.69;;;20.30;38.28
26697;BME280;14312;52.614;13.496;2023-05-23T00:19:04;100549.78;;;20.26;38.19
26697;BME280;14312;52.614;13.496;2023-05-23T00:21:50;100548.31;;;20.20;38.45
26697;BME280;14312;52.614;13.496;2023-05-23T00:24:38;100547.13;;;20.12;38.45
26697;BME280;14312;52.614;13.496;2023-05-23T00:27:24;100548.06;;;20.08;38.45
26697;BME280;14312;52.614;13.496;2023-05-23T00:30:10;100538.47;;;20.02;38.58
26697;BME280;14312;52.614;13.496;2023-05-23T00:32:56;100540.16;;;19.98;38.79
26697;BME280;14312;52.614;13.496;2023-05-23T00:35:42;100541.88;;;19.93;39.01
26697;BME280;14312;52.614;13.496;2023-05-23T00:38:28;100543.00;;;19.92;38.82
26697;BME280;14312;52.614;13.496;2023-05-23T00:41:14;100543.00;;;19.92;39.11
26697;BME280;14312;52.614;13.496;2023-05-23T00:44:03;100537.88;;;19.91;39.03
26697;BME280;14312;52.614;13.496;2023-05-23T00:46:53;100543.00;;;19.92;39.23
26697;BME280;14312;52.614;13.496;2023-05-23T00:49:39;100538.19;;;19.89;39.28
26697;BME280;14312;52.614;13.496;2023-05-23T00:52:26;100538.19;;;19.89;38.96
26697;BME280;14312;52.614;13.496;2023-05-23T00:55:12;100524.97;;;19.88;39.24
26697;BME280;14312;52.614;13.496;2023-05-23T00:57:59;100533.38;;;19.86;39.60
26697;BME280;14312;52.614;13.496;2023-05-23T01:00:45;100524.78;;;19.84;39.68
26697;BME280;14312;52.614;13.496;2023-05-23T01:03:34;100516.97;;;19.83;39.52
26697;BME280;14312;52.614;13.496;2023-05-23T01:06:21;100524.88;;;19.79;39.63
26697;BME280;14312;52.614;13.496;2023-05-23T01:09:07;100514.19;;;19.74;39.59
26697;BME280;14312;52.614;13.496;2023-05-23T01:12:09;100516.38;;;19.72;39.98
26697;BME280;14312;52.614;13.496;2023-05-23T01:15:08;100514.41;;;19.64;40.04
26697;BME280;14312;52.614;13.496;2023-05-23T01:18:20;100509.41;;;19.58;40.21
26697;BME280;14312;52.614;13.496;2023-05-23T01:21:13;100498.50;;;19.49;39.78
26697;BME280;14312;52.614;13.496;2023-05-23T01:29:47;100494.78;;;19.31;39.92
26697;BME280;14312;52.614;13.496;2023-05-23T01:32:38;100497.00;;;19.29;39.96
26697;BME280;14312;52.614;13.496;2023-05-23T01:35:25;100496.47;;;19.27;40.12
26697;BME280;14312;52.614;13.496;2023-05-23T01:38:12;100495.19;;;19.25;39.91
26697;BME280;14312;52.614;13.496;2023-05-23T01:40:58;100488.19;;;19.24;40.11
26697;BME280;14312;52.614;13.496;2023-05-23T01:43:44;100500.59;;;19.25;40.32
26697;BME280;14312;52.614;13.496;2023-05-23T01:46:31;100497.91;;;19.25;40.57
26697;BME280;14312;52.614;13.496;2023-05-23T01:49:19;100489.78;;;19.25;40.50
26697;BME280;14312;52.614;13.496;2023-05-23T01:52:07;100487.09;;;19.25;40.59
26697;BME280;14312;52.614;13.496;2023-05-23T01:54:55;100489.47;;;19.26;40.90
26697;BME280;14312;52.614;13.496;2023-05-23T01:57:43;100489.19;;;19.28;40.80
26697;BME280;14312;52.614;13.496;2023-05-23T02:00:30;100482.16;;;19.27;40.81
26697;BME280;14312;52.614;13.496;2023-05-23T02:03:16;100487.78;;;19.30;40.63
26697;BME280;14312;52.614;13.496;2023-05-23T02:06:03;100491.75;;;19.33;40.86
26697;BME280;14312;52.614;13.496;2023-05-23T02:08:49;100484.16;;;19.35;40.80
26697;BME280;14312;52.614;13.496;2023-05-23T02:11:35;100478.16;;;19.38;40.69
26697;BME280;14312;52.614;13.496;2023-05-23T02:14:21;100475.94;;;19.40;40.78
26697;BME280;14312;52.614;13.496;2023-05-23T02:17:07;100482.38;;;19.44;40.52
26697;BME280;14312;52.614;13.496;2023-05-23T02:19:56;100484.47;;;19.47;40.75
26697;BME280;14312;52.614;13.496;2023-05-23T02:22:42;100486.59;;;19.50;40.92
26697;BME280;14312;52.614;13.496;2023-05-23T02:25:28;100475.97;;;19.53;40.78
26697;BME280;14312;52.614;13.496;2023-05-23T02:28:14;100464.84;;;19.55;40.64
26697;BME280;14312;52.614;13.496;2023-05-23T02:31:01;100472.38;;;19.58;40.95
26697;BME280;14312;52.614;13.496;2023-05-23T02:33:47;100473.97;;;19.59;40.79
26697;BME280;14312;52.614;13.496;2023-05-23T02:36:33;100479.38;;;19.59;40.90
26697;BME280;14312;52.614;13.496;2023-05-23T02:39:19;100477.16;;;19.61;40.80
26697;BME280;14312;52.614;13.496;2023-05-23T02:42:05;100478.75;;;19.62;40.91
26697;BME280;14312;52.614;13.496;2023-05-23T02:44:51;100481.78;;;19.61;40.97
26697;BME280;14312;52.614;13.496;2023-05-23T02:47:37;100480.97;;;19.60;41.08
26697;BME280;14312;52.614;13.496;2023-05-23T02:50:23;100480.97;;;19.60;41.24
26697;BME280;14312;52.614;13.496;2023-05-23T02:53:09;100486.38;;;19.60;41.42
26697;BME280;14312;52.614;13.496;2023-05-23T02:55:55;100485.59;;;19.60;41.33
26697;BME280;14312;52.614;13.496;2023-05-23T02:58:41;100485.25;;;19.61;41.54
26697;BME280;14312;52.614;13.496;2023-05-23T03:01:27;100479.56;;;19.63;40.93
26697;BME280;14312;52.614;13.496;2023-05-23T03:04:13;100476.38;;;19.61;41.33
26697;BME280;14312;52.614;13.496;2023-05-23T03:06:58;100480.66;;;19.62;41.54
26697;BME280;14312;52.614;13.496;2023-05-23T03:09:44;100474.94;;;19.63;41.19
26697;BME280;14312;52.614;13.496;2023-05-23T03:12:30;100469.53;;;19.63;41.43
26697;BME280;14312;52.614;13.496;2023-05-23T03:15:16;100467.94;;;19.62;41.31
26697;BME280;14312;52.614;13.496;2023-05-23T03:18:02;100465.72;;;19.64;41.71
26697;BME280;14312;52.614;13.496;2023-05-23T03:20:48;100467.34;;;19.65;41.48
26697;BME280;14312;52.614;13.496;2023-05-23T03:23:34;100457.31;;;19.66;41.29
26697;BME280;14312;52.614;13.496;2023-05-23T03:26:21;100453.53;;;19.67;41.73
26697;BME280;14312;52.614;13.496;2023-05-23T03:29:07;100459.72;;;19.67;41.62
26697;BME280;14312;52.614;13.496;2023-05-23T03:31:55;100459.09;;;19.70;41.73
26697;BME280;14312;52.614;13.496;2023-05-23T03:34:41;100455.31;;;19.71;41.66
26697;BME280;14312;52.614;13.496;2023-05-23T03:37:27;100454.19;;;19.72;41.81
26697;BME280;14312;52.614;13.496;2023-05-23T03:40:13;100456.09;;;19.72;42.09
26697;BME280;14312;52.614;13.496;2023-05-23T03:43:03;100451.50;;;19.72;42.63
26697;BME280;14312;52.614;13.496;2023-05-23T03:45:49;100465.31;;;19.71;42.16
26697;BME280;14312;52.614;13.496;2023-05-23T03:48:35;100459.09;;;19.70;42.21
26697;BME280;14312;52.614;13.496;2023-05-23T03:51:21;100464.34;;;19.67;42.09
26697;BME280;14312;52.614;13.496;2023-05-23T03:54:08;100468.94;;;19.66;42.29
26697;BME280;14312;52.614;13.496;2023-05-23T03:56:54;100464.13;;;19.63;42.07
26697;BME280;14312;52.614;13.496;2023-05-23T03:59:40;100462.53;;;19.62;42.21
26697;BME280;14312;52.614;13.496;2023-05-23T04:02:26;100461.44;;;19.63;42.29
26697;BME280;14312;52.614;13.496;2023-05-23T04:05:12;100460.31;;;19.64;42.54
26697;BME280;14312;52.614;13.496;2023-05-23T04:07:58;100458.13;;;19.66;42.62
26697;BME280;14312;52.614;13.496;2023-05-23T04:10:47;100456.69;;;19.69;42.70
26697;BME280;14312;52.614;13.496;2023-05-23T04:13:33;100455.31;;;19.71;42.90
26697;BME280;14312;52.614;13.496;2023-05-23T04:16:19;100463.91;;;19.73;42.60
26697;BME280;14312;52.614;13.496;2023-05-23T04:19:07;100456.28;;;19.75;42.70
26697;BME280;14312;52.614;13.496;2023-05-23T04:21:53;100459.50;;;19.77;42.44
26697;BME280;14312;52.614;13.496;2023-05-23T04:24:39;100460.50;;;19.81;42.77
26697;BME280;14312;52.614;13.496;2023-05-23T04:27:25;100452.03;;;19.83;42.96
26697;BME280;14312;52.614;13.496;2023-05-23T04:30:12;100457.66;;;19.86;43.23
26697;BME280;14312;52.614;13.496;2023-05-23T04:32:58;100450.06;;;19.88;42.86
26697;BME280;14312;52.614;13.496;2023-05-23T04:35:44;100441.59;;;19.90;43.00
26697;BME280;14312;52.614;13.496;2023-05-23T04:38:30;100435.28;;;19.94;43.09
26697;BME280;14312;52.614;13.496;2023-05-23T04:41:16;100442.78;;;19.98;43.05
26697;BME280;14312;52.614;13.496;2023-05-23T04:44:07;100439.47;;;20.01;42.97
26697;BME280;14312;52.614;13.496;2023-05-23T04:46:55;100443.16;;;20.05;42.66
26697;BME280;14312;52.614;13.496;2023-05-23T04:49:41;100440.66;;;20.08;42.76
26697;BME280;14312;52.614;13.496;2023-05-23T04:52:27;100448.94;;;20.12;43.11
26697;BME280;14312;52.614;13.496;2023-05-23T04:55:14;100450.22;;;20.14;43.39
26697;BME280;14312;52.614;13.496;2023-05-23T04:58:00;100460.75;;;20.16;43.49
26697;BME280;14312;52.614;13.496;2023-05-23T05:00:46;100451.53;;;20.17;43.62
26697;BME280;14312;52.614;13.496;2023-05-23T05:03:32;100457.41;;;20.19;43.32
26697;BME280;14312;52.614;13.496;2023-05-23T05:06:18;100433.06;;;20.19;43.60
26697;BME280;14312;52.614;13.496;2023-05-23T05:09:05;100437.88;;;20.22;43.59
26697;BME280;14312;52.614;13.496;2023-05-23T05:11:51;100439.47;;;20.23;43.92
26697;BME280;14312;52.614;13.496;2023-05-23T05:14:37;100435.66;;;20.24;43.90
26697;BME280;14312;52.614;13.496;2023-05-23T05:17:23;100443.44;;;20.25;44.01
26697;BME280;14312;52.614;13.496;2023-05-23T05:20:10;100452.38;;;20.26;44.09
26697;BME280;14312;52.614;13.496;2023-05-23T05:22:56;100453.47;;;20.25;43.97
26697;BME280;14312;52.614;13.496;2023-05-23T05:25:43;100451.91;;;20.24;44.16
26697;BME280;14312;52.614;13.496;2023-05-23T05:28:29;100444.38;;;20.21;44.07
26697;BME280;14312;52.614;13.496;2023-05-23T05:31:15;100454.09;;;20.22;43.98
26697;BME280;14312;52.614;13.496;2023-05-23T05:34:01;100450.59;;;20.21;43.88
26697;BME280;14312;52.614;13.496;2023-05-23T05:36:47;100450.91;;;20.20;44.05
26697;BME280;14312;52.614;13.496;2023-05-23T05:39:32;100457.41;;;20.19;43.91
26697;BME280;14312;52.614;13.496;2023-05-23T05:42:22;100460.13;;;20.19;44.03
26697;BME280;14312;52.614;13.496;2023-05-23T05:45:08;100470.94;;;20.19;43.62
26697;BME280;14312;52.614;13.496;2023-05-23T05:47:56;100470.94;;;20.19;43.73
26697;BME280;14312;52.614;13.496;2023-05-23T05:50:42;100470.34;;;20.22;43.80
26697;BME280;14312;52.614;13.496;2023-05-23T05:53:29;100457.31;;;20.24;43.75
26697;BME280;14312;52.614;13.496;2023-05-23T05:56:15;100462.72;;;20.24;43.76
26697;BME280;14312;52.614;13.496;2023-05-23T05:59:01;100459.09;;;20.28;43.84
26697;BME280;14312;52.614;13.496;2023-05-23T06:01:47;100462.59;;;20.29;43.34
26697;BME280;14312;52.614;13.496;2023-05-23T06:04:35;100464.19;;;20.30;43.33
26697;BME280;14312;52.614;13.496;2023-05-23T06:07:21;100454.97;;;20.31;43.34
26697;BME280;14312;52.614;13.496;2023-05-23T06:10:07;100450.06;;;20.33;43.45
26697;BME280;14312;52.614;13.496;2023-05-23T06:12:54;100447.84;;;20.35;43.64
26697;BME280;14312;52.614;13.496;2023-05-23T06:15:40;100447.25;;;20.38;43.41
26697;BME280;14312;52.614;13.496;2023-05-23T06:18:26;100432.78;;;20.43;43.71
26697;BME280;14312;52.614;13.496;2023-05-23T06:21:12;100443.47;;;20.48;43.66
26697;BME280;14312;52.614;13.496;2023-05-23T06:23:58;100442.53;;;20.52;43.82
26697;BME280;14312;52.614;13.496;2023-05-23T06:26:43;100441.28;;;20.58;43.72
26697;BME280;14312;52.614;13.496;2023-05-23T06:29:29;100444.66;;;20.64;44.01
26697;BME280;14312;52.614;13.496;2023-05-23T06:32:20;100437.19;;;20.69;44.11
26697;BME280;14312;52.614;13.496;2023-05-23T06:35:06;100435.13;;;20.75;44.12
26697;BME280;14312;52.614;13.496;2023-05-23T06:37:52;100443.31;;;20.84;44.18
26697;BME280;14312;52.614;13.496;2023-05-23T06:40:38;100440.94;;;20.91;44.12
26697;BME280;14312;52.614;13.496;2023-05-23T06:43:24;100442.41;;;20.97;44.02
26697;BME280;14312;52.614;13.496;2023-05-23T06:46:10;100435.56;;;20.99;43.92
26697;BME280;14312;52.614;13.496;2023-05-23T06:48:56;100439.72;;;21.05;43.82
26697;BME280;14312;52.614;13.496;2023-05-23T06:51:42;100433.53;;;21.14;43.74
26697;BME280;14312;52.614;13.496;2023-05-23T06:54:28;100429.91;;;21.18;43.75
26697;BME280;14312;52.614;13.496;2023-05-23T06:57:14;100430.56;;;21.24;43.53
26697;BME280;14312;52.614;13.496;2023-05-23T07:00:00;100433.28;;;21.32;43.50
26697;BME280;14312;52.614;13.496;2023-05-23T07:02:46;100433.59;;;21.39;43.59
26697;BME280;14312;52.614;13.496;2023-05-23T07:05:33;100431.72;;;21.48;43.64
26697;BME280;14312;52.614;13.496;2023-05-23T07:08:19;100438.44;;;21.60;43.84
26697;BME280;14312;52.614;13.496;2023-05-23T07:11:05;100446.25;;;21.70;43.51
26697;BME280;14312;52.614;13.496;2023-05-23T07:13:51;100447.84;;;21.79;43.01
26697;BME280;14312;52.614;13.496;2023-05-23T07:16:37;100448.31;;;21.90;42.94
26697;BME280;14312;52.614;13.496;2023-05-23T07:19:23;100448.66;;;21.97;42.84
26697;BME280;14312;52.614;13.496;2023-05-23T07:22:09;100446.75;;;22.06;42.50
26697;BME280;14312;52.614;13.496;2023-05-23T07:24:55;100449.47;;;22.15;42.47
26697;BME280;14312;52.614;13.496;2023-05-23T07:27:41;100443.53;;;22.21;42.65
26697;BME280;14312;52.614;13.496;2023-05-23T07:30:27;100440.00;;;22.30;42.70
26697;BME280;14312;52.614;13.496;2023-05-23T07:33:13;100450.38;;;22.36;42.71
26697;BME280;14312;52.614;13.496;2023-05-23T07:35:59;100435.81;;;22.41;42.42
26697;BME280;14312;52.614;13.496;2023-05-23T07:38:45;100441.56;;;22.48;42.39
26697;BME280;14312;52.614;13.496;2023-05-23T07:41:31;100431.66;;;22.52;42.37
26697;BME280;14312;52.614;13.496;2023-05-23T07:44:18;100434.66;;;22.59;42.38
26697;BME280;14312;52.614;13.496;2023-05-23T07:47:04;100434.28;;;22.69;42.32
26697;BME280;14312;52.614;13.496;2023-05-23T07:49:50;100433.63;;;22.81;41.96
26697;BME280;14312;52.614;13.496;2023-05-23T07:52:36;100429.28;;;22.88;41.63
26697;BME280;14312;52.614;13.496;2023-05-23T07:55:22;100426.84;;;22.95;41.65
26697;BME280;14312;52.614;13.496;2023-05-23T07:58:09;100431.00;;;23.01;41.75
26697;BME280;14312;52.614;13.496;2023-05-23T08:00:55;100440.19;;;23.09;41.68
26697;BME280;14312;52.614;13.496;2023-05-23T08:03:42;100439.72;;;23.16;41.81
26697;BME280;14312;52.614;13.496;2023-05-23T08:06:28;100452.00;;;23.22;41.58
26697;BME280;14312;52.614;13.496;2023-05-23T08:09:14;100451.78;;;23.27;41.59
26697;BME280;14312;52.614;13.496;2023-05-23T08:12:00;100448.88;;;23.32;41.67
26697;BME280;14312;52.614;13.496;2023-05-23T08:14:46;100445.31;;;23.40;41.40
26697;BME280;14312;52.614;13.496;2023-05-23T08:17:32;100437.25;;;23.52;41.38
26697;BME280;14312;52.614;13.496;2023-05-23T08:20:18;100438.94;;;23.65;41.23
26697;BME280;14312;52.614;13.496;2023-05-23T08:23:04;100440.56;;;23.78;40.93
26697;BME280;14312;52.614;13.496;2023-05-23T08:25:51;100444.00;;;23.88;40.69
26697;BME280;14312;52.614;13.496;2023-05-23T08:28:37;100452.91;;;23.97;40.55
26697;BME280;14312;52.614;13.496;2023-05-23T08:31:23;100451.56;;;24.03;40.25
26697;BME280;14312;52.614;13.496;2023-05-23T08:34:09;100452.50;;;24.07;40.14
26697;BME280;14312;52.614;13.496;2023-05-23T08:36:55;100452.94;;;24.09;40.44
26697;BME280;14312;52.614;13.496;2023-05-23T08:39:41;100455.00;;;24.12;40.62
26697;BME280;14312;52.614;13.496;2023-05-23T08:42:27;100460.22;;;24.17;40.23
26697;BME280;14312;52.614;13.496;2023-05-23T08:45:14;100456.88;;;24.20;40.30
26697;BME280;14312;52.614;13.496;2023-05-23T08:48:01;100464.19;;;24.28;40.57
26697;BME280;14312;52.614;13.496;2023-05-23T08:50:51;100463.28;;;24.36;40.66
26697;BME280;14312;52.614;13.496;2023-05-23T08:53:40;100464.91;;;24.49;40.78
26697;BME280;14312;52.614;13.496;2023-05-23T08:56:27;100463.56;;;24.68;41.12
26697;BME280;14312;52.614;13.496;2023-05-23T08:59:14;100460.75;;;24.88;40.58
26697;BME280;14312;52.614;13.496;2023-05-23T09:02:02;100470.00;;;25.08;40.43
26697;BME280;14312;52.614;13.496;2023-05-23T09:04:48;100460.44;;;25.26;40.21
26697;BME280;14312;52.614;13.496;2023-05-23T09:07:35;100461.09;;;25.48;40.07
26697;BME280;14312;52.614;13.496;2023-05-23T09:10:21;100465.63;;;25.68;39.94
26697;BME280;14312;52.614;13.496;2023-05-23T09:13:07;100467.38;;;25.88;39.99
26697;BME280;14312;52.614;13.496;2023-05-23T09:16:08;100483.25;;;26.10;39.06
26697;BME280;14312;52.614;13.496;2023-05-23T09:18:55;100467.84;;;26.18;38.94
26697;BME280;14312;52.614;13.496;2023-05-23T09:21:42;100468.88;;;26.26;38.79
26697;BME280;14312;52.614;13.496;2023-05-23T09:24:35;100477.72;;;26.35;38.67
26697;BME280;14312;52.614;13.496;2023-05-23T09:27:21;100471.72;;;26.45;39.04
26697;BME280;14312;52.614;13.496;2023-05-23T09:30:09;100472.19;;;26.63;39.11
26697;BME280;14312;52.614;13.496;2023-05-23T09:32:57;100464.88;;;26.82;39.10
26697;BME280;14312;52.614;13.496;2023-05-23T09:35:44;100470.78;;;27.00;39.02
26697;BME280;14312;52.614;13.496;2023-05-23T09:38:31;100474.41;;;27.20;38.80
26697;BME280;14312;52.614;13.496;2023-05-23T09:41:19;100469.44;;;27.41;38.91
26697;BME280;14312;52.614;13.496;2023-05-23T09:44:07;100471.34;;;27.56;38.03
26697;BME280;14312;52.614;13.496;2023-05-23T09:46:53;100471.13;;;27.65;38.10
26697;BME280;14312;52.614;13.496;2023-05-23T09:49:42;100460.72;;;27.71;38.13
26697;BME280;14312;52.614;13.496;2023-05-23T09:52:35;100463.22;;;27.79;38.28
26697;BME280;14312;52.614;13.496;2023-05-23T09:55:22;100456.28;;;27.85;38.17
26697;BME280;14312;52.614;13.496;2023-05-23T09:58:08;100463.59;;;27.97;38.03
26697;BME280;14312;52.614;13.496;2023-05-23T10:00:55;100456.72;;;28.06;38.06
26697;BME280;14312;52.614;13.496;2023-05-23T10:03:50;100460.16;;;28.19;38.46
26697;BME280;14312;52.614;13.496;2023-05-23T10:06:43;100463.16;;;28.33;37.88
26697;BME280;14312;52.614;13.496;2023-05-23T10:09:36;100455.06;;;28.40;37.22
26697;BME280;14312;52.614;13.496;2023-05-23T10:15:17;100462.94;;;28.23;37.15
26697;BME280;14312;52.614;13.496;2023-05-23T10:18:17;100464.66;;;28.12;37.41
26697;BME280;14312;52.614;13.496;2023-05-23T10:21:10;100455.66;;;27.92;37.32
26697;BME280;14312;52.614;13.496;2023-05-23T10:23:58;100456.94;;;27.79;37.78
26697;BME280;14312;52.614;13.496;2023-05-23T10:26:45;100464.16;;;27.67;37.95
26697;BME280;14312;52.614;13.496;2023-05-23T10:29:31;100460.13;;;27.61;38.34
26697;BME280;14312;52.614;13.496;2023-05-23T10:32:18;100461.25;;;27.60;38.71
26697;BME280;14312;52.614;13.496;2023-05-23T10:35:16;100459.03;;;27.66;38.75
26697;BME280;14312;52.614;13.496;2023-05-23T10:41:26;100457.22;;;27.74;38.16
26697;BME280;14312;52.614;13.496;2023-05-23T10:44:27;100454.06;;;27.72;38.27
26697;BME280;14312;52.614;13.496;2023-05-23T10:47:24;100452.03;;;27.69;38.05
26697;BME280;14312;52.614;13.496;2023-05-23T10:50:12;100460.41;;;27.56;38.26
26697;BME280;14312;52.614;13.496;2023-05-23T10:53:00;100465.69;;;27.49;38.23
26697;BME280;14312;52.614;13.496;2023-05-23T10:55:48;100462.81;;;27.42;38.54
26697;BME280;14312;52.614;13.496;2023-05-23T10:58:40;100470.28;;;27.45;38.69
26697;BME280;14312;52.614;13.496;2023-05-23T11:01:26;100459.34;;;27.45;39.01
26697;BME280;14312;52.614;13.496;2023-05-23T11:04:12;100466.47;;;27.50;38.97
26697;BME280;14312;52.614;13.496;2023-05-23T11:06:58;100468.53;;;27.53;38.78
26697;BME280;14312;52.614;13.496;2023-05-23T11:10:23;100461.25;;;27.60;39.05
26697;BME280;14312;52.614;13.496;2023-05-23T11:13:08;100460.91;;;27.62;38.94
26697;BME280;14312;52.614;13.496;2023-05-23T11:15:55;100470.78;;;27.66;39.40
26697;BME280;14312;52.614;13.496;2023-05-23T11:18:41;100483.47;;;27.75;39.69
26697;BME280;14312;52.614;13.496;2023-05-23T11:21:30;100498.47;;;27.81;39.60
26697;BME280;14312;52.614;13.496;2023-05-23T11:24:16;100487.81;;;27.76;39.67
26697;BME280;14312;52.614;13.496;2023-05-23T11:27:02;100496.16;;;27.63;39.77
26697;BME280;14312;52.614;13.496;2023-05-23T11:29:59;100496.22;;;27.51;40.38
26697;BME280;14312;52.614;13.496;2023-05-23T11:32:50;100479.47;;;27.37;40.81
26697;BME280;14312;52.614;13.496;2023-05-23T11:35:39;100494.88;;;27.26;41.02
26697;BME280;14312;52.614;13.496;2023-05-23T11:38:25;100491.97;;;27.19;41.29
26697;BME280;14312;52.614;13.496;2023-05-23T11:41:11;100503.72;;;27.04;40.78
26697;BME280;14312;52.614;13.496;2023-05-23T11:43:57;100493.72;;;26.80;41.15
26697;BME280;14312;52.614;13.496;2023-05-23T11:47:01;100500.13;;;26.56;41.89
26697;BME280;14312;52.614;13.496;2023-05-23T11:49:47;100510.50;;;26.35;41.69
26697;BME280;14312;52.614;13.496;2023-05-23T11:52:33;100506.09;;;26.18;42.04
26697;BME280;14312;52.614;13.496;2023-05-23T11:55:20;100514.22;;;26.02;42.23
26697;BME280;14312;52.614;13.496;2023-05-23T11:58:08;100503.59;;;25.85;42.62
26697;BME280;14312;52.614;13.496;2023-05-23T12:01:01;100517.25;;;25.73;43.49
26697;BME280;14312;52.614;13.496;2023-05-23T12:03:50;100524.09;;;25.55;43.13
26697;BME280;14312;52.614;13.496;2023-05-23T12:06:38;100529.34;;;25.35;44.13
26697;BME280;14312;52.614;13.496;2023-05-23T12:09:25;100531.81;;;25.16;44.23
26697;BME280;14312;52.614;13.496;2023-05-23T12:12:12;100527.72;;;24.98;44.36
26697;BME280;14312;52.614;13.496;2023-05-23T12:14:58;100527.22;;;24.84;44.12
26697;BME280;14312;52.614;13.496;2023-05-23T12:17:44;100526.50;;;24.75;44.42
26697;BME280;14312;52.614;13.496;2023-05-23T12:20:31;100537.31;;;24.71;44.76
26697;BME280;14312;52.614;13.496;2023-05-23T12:23:23;100535.81;;;24.74;44.79
26697;BME280;14312;52.614;13.496;2023-05-23T12:26:09;100544.47;;;24.76;44.77
26697;BME280;14312;52.614;13.496;2023-05-23T12:28:56;100534.25;;;24.85;45.30
26697;BME280;14312;52.614;13.496;2023-05-23T12:31:42;100538.97;;;24.96;45.42
26697;BME280;14312;52.614;13.496;2023-05-23T12:34:28;100547.75;;;25.14;45.16
26697;BME280;14312;52.614;13.496;2023-05-23T12:37:15;100532.50;;;25.25;45.38
26697;BME280;14312;52.614;13.496;2023-05-23T12:40:17;100552.31;;;25.34;44.93
26697;BME280;14312;52.614;13.496;2023-05-23T12:43:08;100537.97;;;25.38;45.13
26697;BME280;14312;52.614;13.496;2023-05-23T12:45:54;100539.47;;;25.35;44.43
26697;BME280;14312;52.614;13.496;2023-05-23T12:48:40;100536.25;;;25.33;44.93
26697;BME280;14312;52.614;13.496;2023-05-23T12:51:26;100541.59;;;25.29;45.39
26697;BME280;14312;52.614;13.496;2023-05-23T12:54:12;100545.25;;;25.21;45.05
26697;BME280;14312;52.614;13.496;2023-05-23T12:56:58;100543.44;;;25.13;45.10
26697;BME280;14312;52.614;13.496;2023-05-23T12:59:44;100546.81;;;24.98;45.42
26697;BME280;14312;52.614;13.496;2023-05-23T13:02:30;100557.19;;;24.84;45.14
26697;BME280;14312;52.614;13.496;2023-05-23T13:05:16;100554.09;;;24.73;45.71
26697;BME280;14312;52.614;13.496;2023-05-23T13:08:02;100560.31;;;24.62;45.83
26697;BME280;14312;52.614;13.496;2023-05-23T13:10:48;100565.41;;;24.51;45.79
26697;BME280;14312;52.614;13.496;2023-05-23T13:13:34;100556.63;;;24.45;45.99
26697;BME280;14312;52.614;13.496;2023-05-23T13:16:20;100564.09;;;24.36;46.25
26697;BME280;14312;52.614;13.496;2023-05-23T13:19:06;100571.53;;;24.27;45.97
26697;BME280;14312;52.614;13.496;2023-05-23T13:21:52;100571.28;;;24.20;46.15
26697;BME280;14312;52.614;13.496;2023-05-23T13:24:39;100560.06;;;24.13;46.05
26697;BME280;14312;52.614;13.496;2023-05-23T13:27:25;100572.16;;;24.03;46.36
26697;BME280;14312;52.614;13.496;2023-05-23T13:30:11;100570.16;;;23.92;46.53
26697;BME280;14312;52.614;13.496;2023-05-23T13:32:57;100569.41;;;23.83;46.56
26697;BME280;14312;52.614;13.496;2023-05-23T13:35:43;100577.97;;;23.72;46.93
26697;BME280;14312;52.614;13.496;2023-05-23T13:38:29;100581.53;;;23.64;47.22
26697;BME280;14312;52.614;13.496;2023-05-23T13:41:16;100583.50;;;23.55;46.98
26697;BME280;14312;52.614;13.496;2023-05-23T13:44:02;100593.13;;;23.44;46.89
26697;BME280;14312;52.614;13.496;2023-05-23T13:46:48;100596.22;;;23.34;47.43
26697;BME280;14312;52.614;13.496;2023-05-23T13:49:34;100603.13;;;23.23;47.72
26697;BME280;14312;52.614;13.496;2023-05-23T13:52:20;100600.28;;;23.11;47.77
26697;BME280;14312;52.614;13.496;2023-05-23T13:55:08;100604.47;;;22.99;48.05
26697;BME280;14312;52.614;13.496;2023-05-23T13:57:54;100603.22;;;22.88;48.10
26697;BME280;14312;52.614;13.496;2023-05-23T14:00:40;100611.22;;;22.76;48.25
26697;BME280;14312;52.614;13.496;2023-05-23T14:03:26;100602.44;;;22.62;48.59
26697;BME280;14312;52.614;13.496;2023-05-23T14:06:12;100602.28;;;22.50;48.68
26697;BME280;14312;52.614;13.496;2023-05-23T14:08:58;100599.41;;;22.38;48.95
26697;BME280;14312;52.614;13.496;2023-05-23T14:11:44;100608.97;;;22.26;49.41
26697;BME280;14312;52.614;13.496;2023-05-23T14:14:30;100614.09;;;22.19;49.50
26697;BME280;14312;52.614;13.496;2023-05-23T14:17:16;100612.34;;;22.15;49.86
26697;BME280;14312;52.614;13.496;2023-05-23T14:20:02;100619.19;;;22.12;49.92
26697;BME280;14312;52.614;13.496;2023-05-23T14:22:49;100618.22;;;22.08;50.08
26697;BME280;14312;52.614;13.496;2023-05-23T14:25:36;100617.25;;;22.04;50.32
26697;BME280;14312;52.614;13.496;2023-05-23T14:28:22;100611.81;;;22.04;50.33
26697;BME280;14312;52.614;13.496;2023-05-23T14:31:07;100621.06;;;22.03;50.31
26697;BME280;14312;52.614;13.496;2023-05-23T14:33:53;100616.44;;;22.04;50.40
26697;BME280;14312;52.614;13.496;2023-05-23T14:36:39;100627.63;;;22.02;50.50